Time;durP1;ratioP1;P1;durP2;ratioP2;P2;SDS_P1;SDS_P2;PMS_P1;PMS_P2;Temp;Humidity;BMP_temperature;BMP_pressure;BME280_temperature;BME280_humidity;BME280_pressure;Samples;Min_cycle;Max_cycle;Signal;HPM_P1;HPM_P2
2022/08/26 00:00:28;;;;;;;10.00;1.65;;;;;;;29.71;45.43;101695.47;5055877;28;20067;-75
2022/08/26 00:02:53;;;;;;;7.85;1.30;;;;;;;30.35;44.16;101695.91;5057640;28;20476;-76
2022/08/26 00:05:19;;;;;;;4.47;1.25;;;;;;;30.09;44.58;101698.88;5053819;28;20094;-75
2022/08/26 00:07:45;;;;;;;8.00;1.20;;;;;;;28.91;47.74;101686.25;5070618;28;20020;-76
2022/08/26 00:10:11;;;;;;;5.82;1.20;;;;;;;29.82;45.77;101689.25;5059515;28;20555;-76
2022/08/26 00:12:37;;;;;;;6.38;1.20;;;;;;;30.24;44.42;101688.69;5054174;28;20085;-76
2022/08/26 00:15:06;;;;;;;7.82;1.08;;;;;;;30.10;44.74;101679.00;5077837;28;20028;-76
2022/08/26 00:17:32;;;;;;;5.55;1.25;;;;;;;29.21;46.98;101687.63;5066003;28;20023;-76
2022/08/26 00:19:58;;;;;;;4.93;1.73;;;;;;;29.81;45.08;101684.00;5059233;28;20069;-75
2022/08/26 00:22:23;;;;;;;4.90;0.93;;;;;;;29.91;45.76;101691.28;5069284;28;20532;-76
2022/08/26 00:24:48;;;;;;;8.13;1.52;;;;;;;30.62;43.65;101688.31;5069079;28;20036;-76
2022/08/26 00:27:14;;;;;;;8.68;1.15;;;;;;;30.73;43.04;101681.16;5057977;28;20035;-76
2022/08/26 00:29:39;;;;;;;6.10;1.30;;;;;;;31.09;42.38;101681.78;5076798;28;20160;-76
2022/08/26 00:32:05;;;;;;;8.88;2.17;;;;;;;30.70;42.91;101686.81;5077751;28;20031;-76
2022/08/26 00:34:31;;;;;;;6.93;1.17;;;;;;;30.83;43.12;101687.53;5087883;28;20032;-75
2022/08/26 00:36:56;;;;;;;10.48;1.92;;;;;;;30.40;43.99;101688.31;5053020;28;20129;-75
2022/08/26 00:39:22;;;;;;;4.85;1.50;;;;;;;30.63;43.51;101692.69;5059533;28;20149;-76
2022/08/26 00:41:47;;;;;;;5.65;1.45;;;;;;;30.27;43.61;101693.84;5071970;28;20032;-77
2022/08/26 00:44:13;;;;;;;7.18;1.40;;;;;;;29.97;44.33;101694.47;5063417;28;20063;-76
2022/08/26 00:46:43;;;;;;;10.95;1.65;;;;;;;30.17;44.65;101699.13;5052347;28;20021;-76
2022/08/26 00:49:15;;;;;;;3.97;0.98;;;;;;;29.44;46.39;101695.78;5058070;28;20070;-76
2022/08/26 00:51:51;;;;;;;9.43;1.30;;;;;;;30.50;43.47;101686.63;5056182;28;20031;-75
2022/08/26 00:54:19;;;;;;;4.32;1.10;;;;;;;30.28;43.55;101692.84;5069663;28;20059;-77
2022/08/26 00:56:52;;;;;;;9.50;1.30;;;;;;;29.53;45.75;101697.78;5055039;28;20081;-76
2022/08/26 00:59:18;;;;;;;;;;;;;;;30.73;43.43;101691.94;5072984;28;20042;-76
2022/08/26 01:01:44;;;;;;;12.10;1.30;;;;;;;29.76;45.46;101704.06;5065039;28;19938;-76
2022/08/26 01:04:12;;;;;;;8.18;1.20;;;;;;;29.87;45.42;101699.69;5059827;28;20493;-75
2022/08/26 01:06:38;;;;;;;5.88;1.20;;;;;;;29.23;46.26;101696.41;5064083;28;20024;-76
2022/08/26 01:09:05;;;;;;;13.20;2.60;;;;;;;29.92;44.72;101693.00;5071131;28;20035;-76
2022/08/26 01:11:31;;;;;;;7.03;1.30;;;;;;;30.17;44.23;101690.16;5058189;28;20029;-77
2022/08/26 01:13:59;;;;;;;3.25;1.38;;;;;;;30.01;44.47;101695.94;5052710;28;20033;-76
2022/08/26 01:16:25;;;;;;;4.93;1.10;;;;;;;29.46;46.08;101696.53;5055022;28;20056;-76
2022/08/26 01:18:55;;;;;;;6.72;1.20;;;;;;;29.35;46.25;101694.66;5083762;28;20063;-76
2022/08/26 01:21:47;;;;;;;5.80;1.45;;;;;;;28.30;48.99;101693.41;5068943;28;20131;-76
2022/08/26 01:24:12;;;;;;;3.47;1.13;;;;;;;29.79;45.38;101692.19;5053080;28;20460;-77
2022/08/26 01:26:41;;;;;;;6.93;1.85;;;;;;;29.88;45.04;101691.53;5070331;28;20068;-75
2022/08/26 01:29:12;;;;;;;9.80;1.30;;;;;;;30.17;44.41;101687.47;5058584;28;20585;-75
2022/08/26 01:31:40;;;;;;;5.95;1.10;;;;;;;29.81;45.26;101682.16;5077297;28;20351;-76
2022/08/26 01:34:20;;;;;;;7.18;1.52;;;;;;;28.12;49.15;101685.69;5072169;28;20032;-76
2022/08/26 01:36:49;;;;;;;9.23;1.20;;;;;;;28.95;48.00;101686.91;5063503;28;20032;-76
2022/08/26 01:39:14;;;;;;;5.85;1.27;;;;;;;29.67;45.60;101693.16;5052020;28;20071;-76
2022/08/26 01:41:40;;;;;;;4.07;0.90;;;;;;;29.49;45.91;101690.91;5052394;28;20074;-76
2022/08/26 01:44:08;;;;;;;2.97;0.95;;;;;;;29.97;45.31;101694.47;5052307;28;20044;-75
2022/08/26 01:46:34;;;;;;;3.65;1.05;;;;;;;29.45;45.89;101692.13;5072132;28;20020;-76
2022/08/26 01:49:03;;;;;;;8.88;1.40;;;;;;;29.25;46.06;101699.91;5080065;28;20118;-76
2022/08/26 01:51:30;;;;;;;5.55;1.20;;;;;;;29.72;44.97;101696.34;5067093;28;20024;-75
2022/08/26 01:53:56;;;;;;;5.93;0.77;;;;;;;30.09;44.38;101698.88;5058578;28;20025;-76
2022/08/26 01:56:23;;;;;;;7.85;1.10;;;;;;;30.44;43.66;101697.91;5058591;28;20028;-76
2022/08/26 01:58:56;;;;;;;4.72;1.10;;;;;;;30.07;44.42;101690.03;5058253;28;20035;-76
2022/08/26 02:01:23;;;;;;;6.82;1.65;;;;;;;29.57;45.08;101695.72;5055937;28;20025;-76
2022/08/26 02:04:16;;;;;;;3.55;1.50;;;;;;;30.22;44.17;101699.59;5068758;28;20089;-76
2022/08/26 02:06:43;;;;;;;5.78;1.35;;;;;;;29.49;45.69;101701.69;5074415;28;20043;-76
2022/08/26 02:09:09;;;;;;;6.30;1.40;;;;;;;29.13;45.75;101706.19;5052112;28;20024;-76
2022/08/26 02:11:35;;;;;;;5.90;1.42;;;;;;;29.90;45.00;101700.31;5063207;28;20025;-76
2022/08/26 02:14:18;;;;;;;4.70;1.48;;;;;;;29.23;46.60;101701.81;5057196;28;20483;-76
2022/08/26 02:16:47;;;;;;;8.02;1.45;;;;;;;30.55;43.03;101695.16;5074114;28;20115;-76
2022/08/26 02:19:17;;;;;;;6.57;1.63;;;;;;;30.17;44.35;101701.81;5058524;28;20095;-75
2022/08/26 02:21:45;;;;;;;6.10;1.17;;;;;;;29.63;45.19;101702.47;5062813;28;20549;-76
2022/08/26 02:24:15;;;;;;;3.22;1.00;;;;;;;30.31;43.72;101702.53;5059450;28;20119;-75
2022/08/26 02:26:42;;;;;;;3.97;1.05;;;;;;;30.77;42.25;101698.81;5062311;28;20031;-75
2022/08/26 02:29:15;;;;;;;13.05;1.20;;;;;;;28.92;46.17;101700.56;5075566;28;20462;-76
2022/08/26 02:31:40;;;;;;;8.00;1.25;;;;;;;29.82;44.47;101702.72;5073452;28;20052;-76
2022/08/26 02:34:11;;;;;;;6.45;1.23;;;;;;;30.53;42.95;101698.97;5064270;28;20157;-76
2022/08/26 02:36:37;;;;;;;7.95;1.13;;;;;;;29.94;43.85;101707.19;5069600;28;20024;-76
2022/08/26 02:39:03;;;;;;;5.95;1.00;;;;;;;29.97;43.09;101710.63;5072640;28;20035;-76
2022/08/26 02:41:28;;;;;;;7.82;1.30;;;;;;;29.34;45.00;101719.03;5068040;28;20043;-76
2022/08/26 02:43:54;;;;;;;7.10;1.05;;;;;;;30.19;43.76;101721.41;5055018;28;20526;-76
2022/08/26 02:46:20;;;;;;;6.53;1.50;;;;;;;29.72;43.56;101715.22;5073866;28;20031;-76
2022/08/26 02:48:45;;;;;;;4.00;1.10;;;;;;;29.75;43.80;101712.28;5057684;28;20029;-76
2022/08/26 02:51:10;;;;;;;5.07;1.17;;;;;;;30.33;42.04;101711.38;5066221;28;20032;-77
2022/08/26 02:53:36;;;;;;;7.05;1.20;;;;;;;30.54;42.05;101704.28;5093118;28;20525;-76
2022/08/26 02:56:03;;;;;;;7.28;1.13;;;;;;;30.65;42.08;101705.22;5064837;28;20643;-76
2022/08/26 02:58:28;;;;;;;10.57;1.48;;;;;;;30.74;41.63;101709.88;5078694;28;20061;-76
2022/08/26 03:00:54;;;;;;;5.78;1.10;;;;;;;30.65;41.65;101711.44;5061459;28;20054;-76
2022/08/26 03:03:19;;;;;;;4.03;1.70;;;;;;;30.74;41.42;101704.47;5060199;28;20044;-76
2022/08/26 03:05:45;;;;;;;5.45;1.35;;;;;;;28.93;44.87;101713.03;5065500;28;20536;-76
2022/08/26 03:08:10;;;;;;;6.03;1.27;;;;;;;30.02;42.96;101705.72;5085209;28;20479;-76
2022/08/26 03:10:37;;;;;;;10.55;1.30;;;;;;;29.83;43.74;101703.56;5076245;28;20055;-76
2022/08/26 03:13:02;;;;;;;6.05;1.15;;;;;;;29.72;43.93;101696.34;5068334;28;20475;-76
2022/08/26 03:15:28;;;;;;;6.40;0.73;;;;;;;30.13;42.61;101689.56;5063247;28;20085;-75
2022/08/26 03:17:54;;;;;;;4.35;1.00;;;;;;;30.16;42.45;101694.69;5053075;28;21615;-76
2022/08/26 03:20:19;;;;;;;7.95;1.42;;;;;;;29.94;43.04;101701.78;5059125;28;20020;-76
2022/08/26 03:22:45;;;;;;;5.82;0.75;;;;;;;30.92;40.58;101686.72;5057984;28;20051;-76
2022/08/26 03:25:14;;;;;;;9.27;1.65;;;;;;;30.32;42.09;101694.31;5058323;28;20378;-76
2022/08/26 03:27:39;;;;;;;7.82;1.10;;;;;;;30.86;40.84;101687.25;5052837;28;20047;-76
2022/08/26 03:32:50;;;;;;;4.20;0.77;;;;;;;29.88;42.98;101691.53;5088210;28;20050;-75
2022/08/26 03:35:15;;;;;;;3.83;1.20;;;;;;;28.77;45.01;101691.81;5060552;28;20040;-76
2022/08/26 03:37:41;;;;;;;5.60;0.80;;;;;;;29.82;42.88;101691.09;5062337;28;20024;-77
2022/08/26 03:40:08;;;;;;;5.32;0.90;;;;;;;29.43;44.00;101691.41;5066774;28;20024;-76
2022/08/26 03:42:36;;;;;;;5.05;1.83;;;;;;;29.76;43.11;101687.06;5064895;28;20400;-77
2022/08/26 03:45:03;;;;;;;5.00;1.10;;;;;;;30.10;42.54;101689.78;5057283;28;20139;-76
2022/08/26 03:47:30;;;;;;;3.67;0.90;;;;;;;29.67;43.06;101688.63;5074148;28;20028;-76
2022/08/26 03:49:56;;;;;;;6.47;1.20;;;;;;;29.55;43.15;101685.06;5054100;28;20119;-77
2022/08/26 03:52:22;;;;;;;7.50;1.15;;;;;;;30.61;41.28;101678.50;5067990;28;20119;-76
2022/08/26 03:54:47;;;;;;;5.47;1.35;;;;;;;30.57;41.40;101677.03;5060626;28;20119;-77
2022/08/26 03:57:12;;;;;;;5.28;1.60;;;;;;;30.53;41.45;101686.38;5065154;28;20024;-77
2022/08/26 03:59:38;;;;;;;12.02;1.40;;;;;;;30.39;42.11;101683.88;5060519;28;20466;-77
2022/08/26 04:02:04;;;;;;;2.25;0.90;;;;;;;30.16;41.66;101683.03;5058796;28;20051;-77
2022/08/26 04:04:29;;;;;;;9.13;2.05;;;;;;;29.97;42.75;101689.06;5067717;28;20580;-77
2022/08/26 04:06:57;;;;;;;5.57;1.85;;;;;;;30.87;40.57;101683.59;5070376;28;20063;-77
2022/08/26 04:09:23;;;;;;;8.60;2.55;;;;;;;30.82;40.38;101680.41;5060827;28;20039;-77
2022/08/26 04:11:48;;;;;;;6.30;2.67;;;;;;;30.66;40.61;101680.81;5055420;28;20028;-77
2022/08/26 04:14:18;;;;;;;3.90;1.70;;;;;;;30.72;40.39;101674.91;5054039;28;20029;-76
2022/08/26 04:16:44;;;;;;;4.43;1.20;;;;;;;30.18;41.14;101679.25;5055707;28;20107;-77
2022/08/26 04:19:11;;;;;;;7.28;0.93;;;;;;;30.83;40.00;101675.84;5084328;28;20027;-77
2022/08/26 04:21:37;;;;;;;4.38;1.45;;;;;;;30.59;41.08;101677.75;5061224;28;20024;-77
2022/08/26 04:24:04;;;;;;;3.88;0.90;;;;;;;31.49;39.37;101678.41;5069041;28;20032;-77
2022/08/26 04:26:35;;;;;;;6.28;1.50;;;;;;;31.22;39.52;101682.47;5070191;28;20479;-77
2022/08/26 04:29:09;;;;;;;5.65;0.93;;;;;;;31.42;39.24;101683.47;5058682;28;20077;-77
2022/08/26 04:31:36;;;;;;;5.35;0.85;;;;;;;31.37;39.49;101690.28;5054128;28;20116;-77
2022/08/26 04:34:02;;;;;;;4.75;1.10;;;;;;;29.59;42.41;101691.94;5073997;28;20039;-77
2022/08/26 04:36:28;;;;;;;8.05;0.85;;;;;;;29.44;43.62;101698.47;5061784;28;20111;-76
2022/08/26 04:38:53;;;;;;;3.78;0.80;;;;;;;30.25;42.11;101696.66;5056753;28;20021;-77
2022/08/26 04:41:19;;;;;;;3.75;0.77;;;;;;;30.08;41.62;101691.75;5063748;28;20697;-77
2022/08/26 04:43:46;;;;;;;6.07;2.10;;;;;;;30.89;40.74;101687.00;5057248;28;20024;-77
2022/08/26 04:46:15;;;;;;;4.95;0.80;;;;;;;30.88;40.95;101690.66;5041080;28;20029;-77
2022/08/26 04:48:43;;;;;;;6.03;1.00;;;;;;;30.19;42.16;101691.75;5051711;28;20028;-77
2022/08/26 04:51:09;;;;;;;3.75;1.00;;;;;;;30.58;41.68;101691.38;5067134;28;20021;-78
2022/08/26 04:53:35;;;;;;;6.53;0.93;;;;;;;30.15;42.68;101692.97;5056321;28;20542;-78
2022/08/26 04:56:00;;;;;;;8.50;1.17;;;;;;;29.54;43.67;101695.94;5049963;28;20033;-77
2022/08/26 04:58:26;;;;;;;2.97;0.70;;;;;;;29.93;43.33;101696.53;5056580;28;20047;-77
2022/08/26 05:00:55;;;;;;;3.72;1.10;;;;;;;29.72;43.41;101696.34;5039589;28;20500;-77
2022/08/26 05:03:21;;;;;;;10.38;1.00;;;;;;;29.79;43.28;101697.59;5044299;28;20380;-78
2022/08/26 05:05:48;;;;;;;10.43;1.33;;;;;;;28.69;45.83;101696.91;5046498;28;20365;-77
2022/08/26 05:08:15;;;;;;;4.13;1.00;;;;;;;30.58;41.59;101697.66;5033641;28;20041;-77
2022/08/26 05:10:43;;;;;;;7.40;1.10;;;;;;;29.73;43.13;101704.31;5033385;28;20106;-78
2022/08/26 05:13:10;;;;;;;4.90;0.90;;;;;;;29.94;43.12;101704.50;5033653;28;20112;-77
2022/08/26 05:15:35;;;;;;;4.78;0.88;;;;;;;29.72;43.41;101701.75;5033352;28;20066;-77
2022/08/26 05:18:05;;;;;;;11.25;1.30;;;;;;;29.64;43.97;101710.41;5044240;28;20036;-77
2022/08/26 05:20:31;;;;;;;4.13;0.90;;;;;;;29.32;44.26;101712.88;5040351;28;20063;-77
2022/08/26 05:23:00;;;;;;;4.88;1.83;;;;;;;29.44;43.94;101709.25;5037193;28;20111;-77
2022/08/26 05:25:30;;;;;;;6.88;1.20;;;;;;;30.28;42.61;101706.31;5040764;28;20522;-77
2022/08/26 05:27:56;;;;;;;6.43;1.05;;;;;;;28.59;46.19;101705.59;5032198;28;20033;-77
2022/08/26 05:30:22;;;;;;;7.22;0.93;;;;;;;29.59;43.71;101713.47;5042033;28;20033;-78
2022/08/26 05:32:49;;;;;;;4.13;1.02;;;;;;;29.22;44.49;101721.63;5054404;28;20059;-77
2022/08/26 05:35:15;;;;;;;8.43;1.35;;;;;;;29.19;45.27;101716.47;5043581;28;20032;-77
2022/08/26 05:37:41;;;;;;;8.30;1.13;;;;;;;29.84;43.34;101716.94;5032704;28;20067;-77
2022/08/26 05:40:07;;;;;;;4.72;1.10;;;;;;;29.45;44.25;101714.50;5033144;28;20108;-77
2022/08/26 05:42:32;;;;;;;7.63;0.88;;;;;;;28.80;45.45;101720.28;5051869;28;20035;-77
2022/08/26 05:44:57;;;;;;;4.07;1.00;;;;;;;28.72;45.20;101715.50;5055923;28;20044;-76
2022/08/26 05:47:24;;;;;;;8.10;0.90;;;;;;;29.25;44.01;101715.16;5043038;28;20067;-78
2022/08/26 05:49:49;;;;;;;5.10;1.00;;;;;;;29.00;44.59;101721.50;5042341;28;20095;-77
2022/08/26 05:52:15;;;;;;;3.53;0.82;;;;;;;29.26;43.32;101720.47;5039232;28;20025;-77
2022/08/26 05:54:43;;;;;;;6.88;1.00;;;;;;;30.50;40.91;101729.78;5040083;28;20020;-76
2022/08/26 05:57:10;;;;;;;7.45;1.20;;;;;;;29.60;42.88;101717.84;5038709;28;20020;-77
2022/08/26 05:59:37;;;;;;;7.32;2.08;;;;;;;29.18;44.42;101724.66;5044481;28;20293;-77
2022/08/26 06:02:04;;;;;;;3.95;0.75;;;;;;;30.35;41.92;101736.34;5063644;28;20104;-77
2022/08/26 06:04:30;;;;;;;5.05;1.08;;;;;;;28.58;46.22;101741.53;5036714;28;20198;-76
2022/08/26 06:06:55;;;;;;;9.13;0.80;;;;;;;28.39;45.48;101739.31;5054539;28;20033;-77
2022/08/26 06:09:21;;;;;;;5.50;0.70;;;;;;;29.89;43.08;101724.69;5041970;28;20036;-77
2022/08/26 06:11:46;;;;;;;6.50;1.10;;;;;;;29.88;42.54;101729.25;5038713;28;20037;-77
2022/08/26 06:14:11;;;;;;;2.40;0.60;;;;;;;28.21;45.75;101746.84;5043063;28;20043;-77
2022/08/26 06:16:42;;;;;;;6.40;1.15;;;;;;;29.07;43.92;101741.59;5046620;28;20032;-77
2022/08/26 06:19:09;;;;;;;8.05;0.77;;;;;;;30.08;42.41;101745.66;5050650;28;20029;-78
2022/08/26 06:21:37;;;;;;;6.35;0.63;;;;;;;29.99;42.26;101757.16;5043252;28;20032;-77
2022/08/26 06:26:53;;;;;;;8.07;1.13;;;;;;;29.19;43.65;101754.16;5067359;28;20051;-78
2022/08/26 06:29:21;;;;;;;8.48;2.80;;;;;;;29.95;41.91;101756.53;5037391;28;20025;-78
2022/08/26 06:31:46;;;;;;;3.55;0.88;;;;;;;30.37;40.87;101758.66;5055060;28;20029;-78
2022/08/26 06:34:12;;;;;;;4.78;0.75;;;;;;;30.05;41.94;101767.47;5070773;28;20031;-78
2022/08/26 06:36:40;;;;;;;3.47;0.90;;;;;;;30.48;41.05;101769.47;5071808;28;20115;-78
2022/08/26 06:39:08;;;;;;;1.98;0.75;;;;;;;29.52;42.96;101766.06;5042209;28;20021;-78
2022/08/26 06:41:35;;;;;;;13.30;1.30;;;;;;;28.81;43.79;101768.63;5044895;28;20024;-78
2022/08/26 06:44:02;;;;;;;5.95;1.10;;;;;;;29.59;42.26;101772.72;5060445;28;20044;-78
2022/08/26 06:46:29;;;;;;;2.63;0.70;;;;;;;28.99;43.18;101773.59;5075133;28;20035;-78
2022/08/26 06:48:57;;;;;;;4.35;0.95;;;;;;;29.37;41.56;101775.31;5067033;28;20024;-78
2022/08/26 06:51:28;;;;;;;4.38;1.15;;;;;;;29.10;42.29;101777.22;5055495;28;20047;-78
2022/08/26 06:53:55;;;;;;;5.38;0.90;;;;;;;29.44;41.37;101772.06;5073110;28;20035;-77
2022/08/26 06:56:24;;;;;;;5.50;0.90;;;;;;;30.68;39.84;101775.09;5062525;28;20124;-78
2022/08/26 06:58:50;;;;;;;3.13;0.82;;;;;;;29.43;41.85;101772.16;5059715;28;20042;-78
2022/08/26 07:01:18;;;;;;;3.65;0.70;;;;;;;29.28;41.58;101779.56;5059855;28;20020;-78
2022/08/26 07:03:45;;;;;;;4.25;0.75;;;;;;;29.31;41.33;101773.09;5054124;28;20024;-78
2022/08/26 07:06:11;;;;;;;4.93;0.80;;;;;;;28.93;42.38;101781.19;5056967;28;20032;-78
2022/08/26 07:08:37;;;;;;;4.82;0.75;;;;;;;28.72;42.86;101780.91;5073558;28;20039;-77
2022/08/26 07:11:07;;;;;;;4.90;0.75;;;;;;;29.09;42.60;101788.97;5055006;28;20383;-78
2022/08/26 07:13:36;;;;;;;8.70;1.05;;;;;;;29.14;42.73;101794.03;5061706;28;20028;-77
2022/08/26 07:16:06;;;;;;;5.25;0.82;;;;;;;29.39;42.68;101786.84;5050637;28;20021;-77
2022/08/26 07:18:33;;;;;;;3.92;0.80;;;;;;;28.65;44.44;101792.22;5041504;28;20081;-78
2022/08/26 07:21:04;;;;;;;6.95;0.93;;;;;;;29.37;43.00;101791.47;5076799;28;20047;-78
2022/08/26 07:23:31;;;;;;;6.05;0.75;;;;;;;30.33;41.33;101792.25;5066141;28;20586;-78
2022/08/26 07:25:56;;;;;;;4.53;0.70;;;;;;;29.17;42.96;101796.47;5061573;28;20055;-78
2022/08/26 07:28:22;;;;;;;6.50;1.25;;;;;;;29.09;43.17;101785.44;5078497;28;20024;-78
2022/08/26 07:30:48;;;;;;;10.48;0.80;;;;;;;29.95;41.57;101794.25;5077091;28;20063;-78
2022/08/26 07:33:13;;;;;;;6.15;0.98;;;;;;;30.35;40.61;101801.06;5058062;28;20037;-78
2022/08/26 07:35:38;;;;;;;4.13;0.90;;;;;;;30.84;40.03;101801.69;5092196;28;20028;-78
2022/08/26 07:38:04;;;;;;;9.57;0.80;;;;;;;30.69;40.33;101809.19;5055780;28;20033;-78
2022/08/26 07:40:30;;;;;;;5.20;1.00;;;;;;;29.19;43.15;101799.91;5053804;28;20094;-78
2022/08/26 07:42:56;;;;;;;7.82;1.90;;;;;;;29.45;42.18;101807.91;5057518;28;20057;-77
2022/08/26 07:45:22;;;;;;;2.47;0.63;;;;;;;29.02;43.21;101816.47;5014843;28;1121450;-78
2022/08/26 07:47:47;;;;;;;5.97;0.80;;;;;;;29.11;42.29;101818.44;5056204;28;20660;-78
2022/08/26 07:50:12;;;;;;;4.20;0.70;;;;;;;30.00;40.35;101823.56;5075445;28;20505;-78
2022/08/26 07:52:38;;;;;;;2.95;0.70;;;;;;;30.02;40.83;101816.22;5074367;28;20107;-78
2022/08/26 07:55:05;;;;;;;3.40;0.77;;;;;;;29.90;40.23;101816.19;5059097;28;20032;-78
2022/08/26 07:57:31;;;;;;;9.02;1.20;;;;;;;30.04;40.07;101822.34;5080907;28;20031;-78
2022/08/26 07:59:57;;;;;;;4.13;0.65;;;;;;;29.41;41.51;101826.09;5071637;28;20032;-77
2022/08/26 08:02:24;;;;;;;5.22;0.88;;;;;;;29.59;40.77;101829.28;5072972;28;20092;-76
2022/08/26 08:04:50;;;;;;;1.48;0.50;;;;;;;30.03;39.43;101834.09;5091252;28;20499;-77
2022/08/26 08:07:16;;;;;;;3.92;0.68;;;;;;;30.45;39.54;101829.06;5084869;28;20027;-77
2022/08/26 08:09:41;;;;;;;5.93;0.70;;;;;;;30.36;39.66;101837.84;5065311;28;20025;-78
2022/08/26 08:12:08;;;;;;;6.07;0.55;;;;;;;30.23;39.65;101841.50;5053596;28;20123;-78
2022/08/26 08:14:35;;;;;;;9.07;2.28;;;;;;;29.23;41.13;101840.91;5068150;28;20032;-77
2022/08/26 08:17:02;;;;;;;4.95;0.70;;;;;;;28.82;41.96;101844.78;5067686;28;20197;-77
2022/08/26 08:19:27;;;;;;;5.47;1.58;;;;;;;29.68;39.89;101845.72;5063241;28;20032;-77
2022/08/26 08:21:52;;;;;;;4.30;0.75;;;;;;;29.19;41.14;101839.44;5064349;28;20028;-78
2022/08/26 08:24:18;;;;;;;5.47;0.70;;;;;;;29.23;41.12;101832.84;5070385;28;20032;-77
2022/08/26 08:26:44;;;;;;;3.40;0.80;;;;;;;29.72;39.88;101823.81;5057052;28;20035;-77
2022/08/26 08:29:10;;;;;;;5.22;0.80;;;;;;;29.90;39.83;101821.56;5070325;28;20510;-78
2022/08/26 08:31:35;;;;;;;6.60;0.82;;;;;;;30.14;39.46;101835.97;5073426;28;20106;-78
2022/08/26 08:34:01;;;;;;;2.47;0.50;;;;;;;28.42;42.67;101832.31;5075317;28;20062;-78
2022/08/26 08:36:26;;;;;;;3.80;0.50;;;;;;;28.47;42.67;101832.84;5053854;28;20028;-77
2022/08/26 08:38:51;;;;;;;6.95;1.00;;;;;;;29.15;40.62;101840.63;5054646;28;20059;-78
2022/08/26 08:41:30;;;;;;;5.32;1.13;;;;;;;29.90;39.62;101835.03;5086987;28;20031;-78
2022/08/26 08:43:59;;;;;;;2.33;0.50;;;;;;;27.41;43.89;101848.97;5060092;28;20056;-77
2022/08/26 08:46:24;;;;;;;4.20;0.50;;;;;;;28.14;43.58;101844.13;5055171;28;20032;-77
2022/08/26 08:48:55;;;;;;;1.90;0.55;;;;;;;29.01;41.26;101841.63;5062851;28;20032;-78
2022/08/26 08:51:46;;;;;;;4.00;0.70;;;;;;;28.54;42.27;101834.13;5083493;28;20077;-77
2022/08/26 08:54:12;;;;;;;2.15;0.50;;;;;;;28.83;41.39;101833.91;5058227;28;20095;-77
2022/08/26 08:56:52;;;;;;;4.30;0.70;;;;;;;28.37;42.19;101837.16;5066809;28;20052;-78
2022/08/26 08:59:26;;;;;;;4.35;0.50;;;;;;;28.44;42.31;101833.09;5082505;28;20055;-76
2022/08/26 09:02:23;;;;;;;4.95;0.57;;;;;;;29.73;40.42;101824.66;5053180;28;20029;-78
2022/08/26 09:05:13;;;;;;;2.35;0.80;;;;;;;29.74;40.54;101824.53;5063124;28;20051;-77
2022/08/26 09:07:47;;;;;;;5.70;0.50;;;;;;;30.76;38.34;101826.59;5059339;28;20020;-78
2022/08/26 09:10:44;;;;;;;5.15;0.60;;;;;;;29.64;40.00;101834.31;5070352;28;20036;-78
2022/08/26 09:13:13;;;;;;;3.55;0.75;;;;;;;29.37;41.05;101842.63;5010731;28;20036;-78
2022/08/26 09:16:07;;;;;;;3.00;0.60;;;;;;;29.77;40.74;101836.91;5057871;28;20088;-78
2022/08/26 09:18:58;;;;;;;7.72;1.00;;;;;;;30.20;39.69;101840.88;5052171;28;20040;-78
2022/08/26 09:21:24;;;;;;;5.03;0.85;;;;;;;30.05;39.71;101840.25;5063337;28;20020;-78
2022/08/26 09:23:51;;;;;;;9.00;1.00;;;;;;;29.39;41.33;101846.91;5052133;28;20480;-77
2022/08/26 09:26:22;;;;;;;3.63;0.63;;;;;;;30.06;39.66;101840.13;5074443;28;20028;-78
2022/08/26 09:29:04;;;;;;;7.82;1.20;;;;;;;30.98;37.83;101827.56;5057778;28;20039;-78
2022/08/26 09:31:33;;;;;;;2.83;0.55;;;;;;;30.31;38.63;101823.84;5056854;28;20063;-77
2022/08/26 09:34:05;;;;;;;5.13;1.02;;;;;;;30.22;39.68;101831.69;5053381;28;20451;-77
2022/08/26 09:36:40;;;;;;;6.03;0.70;;;;;;;30.35;39.09;101836.13;5074748;28;20039;-77
2022/08/26 09:39:29;;;;;;;7.47;0.85;;;;;;;30.01;38.83;101836.06;5055304;28;20028;-78
2022/08/26 09:42:03;;;;;;;3.05;0.43;;;;;;;30.72;37.95;101830.50;5069359;28;20036;-77
2022/08/26 09:44:30;;;;;;;1.98;0.40;;;;;;;30.73;37.68;101843.88;5069568;28;20074;-78
2022/08/26 09:47:01;;;;;;;2.15;0.40;;;;;;;30.53;38.01;101853.59;5071646;28;20097;-78
2022/08/26 09:49:39;;;;;;;4.47;0.45;;;;;;;30.66;37.20;101844.50;5060204;28;20025;-78
2022/08/26 09:52:18;;;;;;;1.33;0.43;;;;;;;29.61;39.04;101848.88;5061452;28;20039;-77
2022/08/26 09:54:59;;;;;;;3.63;0.52;;;;;;;31.18;36.83;101848.41;5058443;28;20488;-77
2022/08/26 09:57:27;;;;;;;4.65;1.25;;;;;;;30.77;37.10;101847.19;5071973;28;20066;-77
2022/08/26 09:59:53;;;;;;;2.40;0.65;;;;;;;31.17;35.52;101835.88;5082576;28;20032;-77
2022/08/26 10:02:30;;;;;;;0.52;0.40;;;;;;;29.58;38.65;101846.41;5060915;28;20384;-78
2022/08/26 10:04:59;;;;;;;0.73;0.35;;;;;;;29.86;37.61;101844.34;5058901;28;20097;-78
2022/08/26 10:07:35;;;;;;;2.55;0.52;;;;;;;31.11;35.88;101845.34;5050797;28;20071;-77
2022/08/26 10:10:08;;;;;;;2.30;0.50;;;;;;;32.06;34.51;101845.63;5058440;28;20060;-76
2022/08/26 10:12:44;;;;;;;6.43;0.70;;;;;;;30.85;37.44;101852.00;5083727;28;20081;-77
2022/08/26 10:15:13;;;;;;;6.60;1.45;;;;;;;30.96;36.77;101850.13;5062627;28;20031;-77
2022/08/26 10:18:02;;;;;;;4.40;0.70;;;;;;;30.13;39.90;101845.91;5053281;28;20024;-76
2022/08/26 10:20:40;;;;;;;10.05;1.40;;;;;;;31.50;37.09;101842.16;5070014;28;20028;-77
2022/08/26 10:23:23;;;;;;;5.22;0.88;;;;;;;30.37;38.82;101842.25;5074498;28;20032;-77
2022/08/26 10:26:18;;;;;;;2.70;0.75;;;;;;;29.92;40.01;101837.63;5051387;28;20064;-77
2022/08/26 10:29:12;;;;;;;4.53;0.90;;;;;;;30.23;39.57;101846.88;5052047;28;20047;-77
2022/08/26 10:31:49;;;;;;;6.22;1.00;;;;;;;30.91;38.18;101846.97;5057906;28;20060;-78
2022/08/26 10:34:15;;;;;;;3.42;0.90;;;;;;;29.38;40.53;101855.13;5053981;28;20034;-77
2022/08/26 10:36:56;;;;;;;6.68;1.20;;;;;;;30.06;39.71;101850.91;5056414;28;20039;-77
2022/08/26 10:39:40;;;;;;;5.32;2.22;;;;;;;29.99;40.10;101854.19;5072654;28;20067;-78
2022/08/26 10:42:12;;;;;;;3.22;1.10;;;;;;;29.69;39.91;101853.69;5055569;28;20033;-77
2022/08/26 10:44:40;;;;;;;5.20;1.20;;;;;;;29.88;39.47;101858.56;5065205;28;20057;-77
2022/08/26 10:47:17;;;;;;;4.28;0.93;;;;;;;29.72;39.69;101847.22;5035713;28;20031;-77
2022/08/26 10:49:44;;;;;;;5.45;1.10;;;;;;;30.71;37.47;101850.41;5036478;28;20032;-77
2022/08/26 10:52:25;;;;;;;3.85;1.00;;;;;;;30.06;38.74;101850.03;5036941;28;20048;-77
2022/08/26 10:55:31;;;;;;;6.03;1.20;;;;;;;29.72;39.08;101852.59;5048393;28;20033;-77
2022/08/26 10:58:01;;;;;;;7.63;1.02;;;;;;;30.47;37.68;101859.44;5035961;28;20033;-77
2022/08/26 11:03:39;;;;;;;4.15;1.20;;;;;;;30.16;37.94;101850.16;5073147;28;20400;-77
2022/08/26 11:06:24;;;;;;;4.55;1.10;;;;;;;31.57;35.79;101843.41;5041805;28;20056;-77
2022/08/26 11:09:00;;;;;;;5.32;1.45;;;;;;;31.19;36.77;101857.34;5073475;28;20503;-78
2022/08/26 11:11:44;;;;;;;7.00;1.15;;;;;;;30.99;37.83;101864.38;5038888;28;20029;-78
2022/08/26 11:14:28;;;;;;;2.88;1.00;;;;;;;31.23;36.99;101857.00;5046618;28;20036;-77
2022/08/26 11:16:55;;;;;;;5.50;1.20;;;;;;;31.87;35.09;101859.88;5033104;28;20082;-77
2022/08/26 11:19:40;;;;;;;9.35;1.50;;;;;;;32.18;34.94;101855.41;5035624;28;20521;-77
2022/08/26 11:22:28;;;;;;;6.05;1.05;;;;;;;29.87;38.41;101859.53;5040721;28;20033;-77
2022/08/26 11:24:53;;;;;;;4.97;0.90;;;;;;;31.62;35.41;101862.78;5035941;28;20039;-77
2022/08/26 11:27:24;;;;;;;7.38;1.20;;;;;;;30.51;37.48;101874.41;5035409;28;20037;-77
2022/08/26 11:30:16;;;;;;;5.15;1.48;;;;;;;31.24;36.20;101864.13;5035043;28;20036;-77
2022/08/26 11:32:42;;;;;;;6.93;1.35;;;;;;;30.58;36.70;101862.19;5041764;28;20028;-76
2022/08/26 11:35:23;;;;;;;5.18;1.10;;;;;;;30.08;37.79;101857.03;5036930;28;20040;-77
2022/08/26 11:38:01;;;;;;;5.50;0.88;;;;;;;30.23;37.55;101857.66;5051874;28;20452;-77
2022/08/26 11:40:30;;;;;;;5.47;1.42;;;;;;;30.87;36.59;101861.69;5048302;28;20292;-77
2022/08/26 11:42:57;;;;;;;4.82;1.00;;;;;;;30.34;37.37;101858.69;5065215;28;20494;-77